createdAt,value
2017-10-16T00:00:26.634Z,9.09
2017-10-16T00:02:54.136Z,9.09
2017-10-16T00:05:22.107Z,9.10
2017-10-16T00:07:49.634Z,9.07
2017-10-16T00:10:17.153Z,9.04
2017-10-16T00:12:44.739Z,9.02
2017-10-16T00:15:12.254Z,9.00
2017-10-16T00:17:39.747Z,8.96
2017-10-16T00:20:07.255Z,8.96
2017-10-16T00:22:34.784Z,8.94
2017-10-16T00:25:02.329Z,8.91
2017-10-16T00:27:29.873Z,8.93
2017-10-16T00:29:57.463Z,8.94
2017-10-16T00:32:24.898Z,8.92
2017-10-16T00:34:52.488Z,8.88
2017-10-16T00:37:19.975Z,8.88
2017-10-16T00:39:47.551Z,8.84
2017-10-16T00:42:15.181Z,8.87
2017-10-16T00:44:43.732Z,8.83
2017-10-16T00:47:11.170Z,8.78
2017-10-16T00:49:39.000Z,8.72
2017-10-16T00:52:06.496Z,8.68
2017-10-16T00:54:34.004Z,8.69
2017-10-16T00:57:01.883Z,8.74
2017-10-16T00:59:29.519Z,8.78
2017-10-16T01:01:57.003Z,8.76
2017-10-16T01:04:25.028Z,8.75
2017-10-16T01:06:52.604Z,8.74
2017-10-16T01:09:20.270Z,8.75
2017-10-16T01:11:48.138Z,8.68
2017-10-16T01:14:15.627Z,8.65
2017-10-16T01:16:43.129Z,8.64
2017-10-16T01:19:10.925Z,8.60
2017-10-16T01:21:38.600Z,8.62
2017-10-16T01:24:06.169Z,8.62
2017-10-16T01:26:33.818Z,8.61
2017-10-16T01:29:01.381Z,8.60
2017-10-16T01:31:28.950Z,8.55
2017-10-16T01:33:56.822Z,8.50
2017-10-16T01:36:24.307Z,8.55
2017-10-16T01:38:51.941Z,8.57
2017-10-16T01:41:19.801Z,8.55
2017-10-16T01:43:47.471Z,8.50
2017-10-16T01:46:15.030Z,8.49
2017-10-16T01:48:42.920Z,8.52
2017-10-16T01:51:10.540Z,8.51
2017-10-16T01:53:38.028Z,8.48
2017-10-16T01:56:05.581Z,8.44
2017-10-16T01:58:33.160Z,8.46
2017-10-16T02:01:00.652Z,8.51
2017-10-16T02:03:28.163Z,8.60
2017-10-16T02:05:55.620Z,8.63
2017-10-16T02:08:23.088Z,8.60
2017-10-16T02:10:50.620Z,8.57
2017-10-16T02:13:18.120Z,8.52
2017-10-16T02:15:45.609Z,8.49
2017-10-16T02:18:13.085Z,8.44
2017-10-16T02:20:40.529Z,8.37
2017-10-16T02:23:08.088Z,8.33
2017-10-16T02:25:35.916Z,8.25
2017-10-16T02:28:03.482Z,8.18
2017-10-16T02:30:31.038Z,8.12
2017-10-16T02:32:58.651Z,8.12
2017-10-16T02:35:26.172Z,8.11
2017-10-16T02:37:53.653Z,8.09
2017-10-16T02:40:21.178Z,8.06
2017-10-16T02:42:48.748Z,7.99
2017-10-16T02:45:16.304Z,7.96
2017-10-16T02:47:43.831Z,7.94
2017-10-16T02:50:11.441Z,7.91
2017-10-16T02:52:38.919Z,7.90
2017-10-16T02:55:06.509Z,7.90
2017-10-16T02:57:34.022Z,7.86
2017-10-16T03:00:01.556Z,7.83
2017-10-16T03:02:29.096Z,7.83
2017-10-16T03:04:56.714Z,7.83
2017-10-16T03:07:24.190Z,7.86
2017-10-16T03:09:51.931Z,7.87
2017-10-16T03:12:19.399Z,8.01
2017-10-16T03:14:46.962Z,8.09
2017-10-16T03:17:14.634Z,8.07
2017-10-16T03:19:42.133Z,8.07
2017-10-16T03:22:09.682Z,7.94
2017-10-16T03:24:37.563Z,7.94
2017-10-16T03:27:05.109Z,7.84
2017-10-16T03:29:32.655Z,7.80
2017-10-16T03:32:00.220Z,7.74
2017-10-16T03:34:27.742Z,7.64
2017-10-16T03:36:55.261Z,7.65
2017-10-16T03:39:22.924Z,7.65
2017-10-16T03:41:50.426Z,7.64
2017-10-16T03:46:51.830Z,7.63
2017-10-16T03:49:19.378Z,7.62
2017-10-16T03:51:47.128Z,7.59
2017-10-16T03:54:14.659Z,7.53
2017-10-16T03:56:42.118Z,7.50
2017-10-16T03:59:09.651Z,7.48
2017-10-16T04:01:37.522Z,7.47
2017-10-16T04:04:05.441Z,7.43
2017-10-16T04:06:33.224Z,7.36
2017-10-16T04:09:00.762Z,7.32
2017-10-16T04:11:28.428Z,7.33
2017-10-16T04:13:56.923Z,7.37
2017-10-16T04:16:24.511Z,7.39
2017-10-16T04:18:52.102Z,7.40
2017-10-16T04:21:19.657Z,7.41
2017-10-16T04:23:47.481Z,7.44
2017-10-16T04:26:15.075Z,7.49
2017-10-16T04:28:42.693Z,7.55
2017-10-16T04:31:10.285Z,7.60
2017-10-16T04:33:37.901Z,7.67
2017-10-16T04:36:06.415Z,7.75
2017-10-16T04:38:34.538Z,7.82
2017-10-16T04:41:02.023Z,7.83
2017-10-16T04:43:29.584Z,7.86
2017-10-16T04:45:57.294Z,7.85
2017-10-16T04:48:24.812Z,7.83
2017-10-16T04:50:52.310Z,7.82
2017-10-16T04:53:20.000Z,7.78
2017-10-16T04:55:48.212Z,7.77
2017-10-16T04:58:15.835Z,7.76
2017-10-16T05:00:43.529Z,7.77
2017-10-16T05:03:13.812Z,7.76
2017-10-16T05:05:41.356Z,7.74
2017-10-16T05:08:09.290Z,7.71
2017-10-16T05:10:36.782Z,7.71
2017-10-16T05:13:04.303Z,7.70
2017-10-16T05:15:31.907Z,7.70
2017-10-16T05:17:59.600Z,7.69
2017-10-16T05:20:27.210Z,7.65
2017-10-16T05:22:54.782Z,7.63
2017-10-16T05:25:22.318Z,7.64
2017-10-16T05:27:50.328Z,7.67
2017-10-16T05:30:20.216Z,7.66
2017-10-16T05:32:47.738Z,7.65
2017-10-16T05:35:15.262Z,7.65
2017-10-16T05:37:42.800Z,7.64
2017-10-16T05:40:10.323Z,7.69
2017-10-16T05:42:37.922Z,7.65
2017-10-16T05:45:05.793Z,7.67
2017-10-16T05:47:33.373Z,7.68
2017-10-16T05:50:01.035Z,7.74
2017-10-16T05:52:28.658Z,7.81
2017-10-16T05:54:56.229Z,7.83
2017-10-16T05:57:23.725Z,7.87
2017-10-16T05:59:51.259Z,7.92
2017-10-16T06:02:18.804Z,7.93
2017-10-16T06:04:46.360Z,7.91
2017-10-16T06:07:13.935Z,7.88
2017-10-16T06:09:41.497Z,7.88
2017-10-16T06:12:09.026Z,7.92
2017-10-16T06:14:36.560Z,7.98
2017-10-16T06:17:04.148Z,8.02
2017-10-16T06:19:31.631Z,8.08
2017-10-16T06:21:59.250Z,8.12
2017-10-16T06:24:26.722Z,8.23
2017-10-16T06:26:54.280Z,8.32
2017-10-16T06:29:21.941Z,8.37
2017-10-16T06:31:49.385Z,8.43
2017-10-16T06:34:16.908Z,8.55
2017-10-16T06:36:44.647Z,8.66
2017-10-16T06:39:12.173Z,8.74
2017-10-16T06:41:39.660Z,8.81
2017-10-16T06:44:07.503Z,8.84
2017-10-16T06:46:34.984Z,8.90
2017-10-16T06:49:02.443Z,8.95
2017-10-16T06:51:30.027Z,9.00
2017-10-16T06:53:57.614Z,9.05
2017-10-16T06:56:25.092Z,9.10
2017-10-16T06:58:52.681Z,9.14
2017-10-16T07:01:20.288Z,9.25
2017-10-16T07:03:47.782Z,9.37
2017-10-16T07:06:15.588Z,9.43
2017-10-16T07:08:43.107Z,9.56
2017-10-16T07:11:10.576Z,9.59
2017-10-16T07:13:38.750Z,9.55
2017-10-16T07:16:06.257Z,9.51
2017-10-16T07:18:33.890Z,9.55
2017-10-16T07:21:01.522Z,9.66
2017-10-16T07:23:29.079Z,9.61
2017-10-16T07:25:56.664Z,9.60
2017-10-16T07:28:24.190Z,9.62
2017-10-16T07:30:51.697Z,9.58
2017-10-16T07:33:19.238Z,9.65
2017-10-16T07:35:47.222Z,9.73
2017-10-16T07:38:14.744Z,9.75
2017-10-16T07:40:42.333Z,9.78
2017-10-16T07:43:10.171Z,9.85
2017-10-16T07:45:37.725Z,9.96
2017-10-16T07:48:05.295Z,10.14
2017-10-16T07:53:06.521Z,10.40
2017-10-16T07:55:34.276Z,10.56
2017-10-16T07:58:01.762Z,10.65
2017-10-16T08:00:29.260Z,10.69
2017-10-16T08:02:57.326Z,10.78
2017-10-16T08:05:25.813Z,10.91
2017-10-16T08:07:53.321Z,10.89
2017-10-16T08:10:21.205Z,10.86
2017-10-16T08:12:48.697Z,10.91
2017-10-16T08:15:16.309Z,11.01
2017-10-16T08:17:44.256Z,11.17
2017-10-16T08:20:11.817Z,11.23
2017-10-16T08:22:39.542Z,11.34
2017-10-16T08:25:07.193Z,11.47
2017-10-16T08:27:34.894Z,11.54
2017-10-16T08:30:02.598Z,11.51
2017-10-16T08:32:30.442Z,11.54
2017-10-16T08:34:57.925Z,11.68
2017-10-16T08:37:25.570Z,11.78
2017-10-16T08:39:53.936Z,11.86
2017-10-16T08:42:21.446Z,11.92
2017-10-16T08:44:49.224Z,12.03
2017-10-16T08:47:17.150Z,12.09
2017-10-16T08:49:44.693Z,12.21
2017-10-16T08:52:12.294Z,12.30
2017-10-16T08:54:39.956Z,12.40
2017-10-16T08:57:07.417Z,12.46
2017-10-16T08:59:35.116Z,12.52
2017-10-16T09:02:03.182Z,12.66
2017-10-16T09:04:30.667Z,12.84
2017-10-16T09:06:58.219Z,12.83
2017-10-16T09:09:25.865Z,12.86
2017-10-16T09:11:54.625Z,12.99
2017-10-16T09:14:22.127Z,13.15
2017-10-16T09:16:49.622Z,13.23
2017-10-16T09:19:17.150Z,13.37
2017-10-16T09:21:44.617Z,13.42
2017-10-16T09:24:12.600Z,13.56
2017-10-16T09:26:40.198Z,13.70
2017-10-16T09:29:07.644Z,13.82
2017-10-16T09:31:35.184Z,13.97
2017-10-16T09:34:02.726Z,14.12
2017-10-16T09:36:30.310Z,14.21
2017-10-16T09:38:58.263Z,14.39
2017-10-16T09:41:25.701Z,14.56
2017-10-16T09:43:53.304Z,14.77
2017-10-16T09:46:20.876Z,14.99
2017-10-16T09:48:49.261Z,15.18
2017-10-16T09:51:16.858Z,15.31
2017-10-16T09:53:44.439Z,15.54
2017-10-16T09:56:12.071Z,15.73
2017-10-16T09:58:40.099Z,15.93
2017-10-16T10:01:07.904Z,16.10
2017-10-16T10:03:35.704Z,16.30
2017-10-16T10:06:03.222Z,16.51
2017-10-16T10:08:31.111Z,16.71
2017-10-16T10:10:58.981Z,16.81
2017-10-16T10:13:26.526Z,17.03
2017-10-16T10:15:54.491Z,17.34
2017-10-16T10:18:22.065Z,17.64
2017-10-16T10:20:49.739Z,17.74
2017-10-16T10:23:17.615Z,18.00
2017-10-16T10:25:45.135Z,17.99
2017-10-16T10:28:12.581Z,18.18
2017-10-16T10:30:40.093Z,18.38
2017-10-16T10:33:07.520Z,18.65
2017-10-16T10:35:35.894Z,18.79
2017-10-16T10:38:03.428Z,18.90
2017-10-16T10:40:30.915Z,19.03
2017-10-16T10:42:59.829Z,19.26
2017-10-16T10:45:28.256Z,19.31
2017-10-16T10:47:56.859Z,19.38
2017-10-16T10:50:24.402Z,19.42
2017-10-16T10:52:54.452Z,19.63
2017-10-16T10:55:23.815Z,19.82
2017-10-16T10:57:51.527Z,19.95
2017-10-16T11:00:19.489Z,20.15
2017-10-16T11:02:47.025Z,20.23
2017-10-16T11:05:17.779Z,20.43
2017-10-16T11:07:45.280Z,20.50
2017-10-16T11:10:12.749Z,20.65
2017-10-16T11:12:40.417Z,20.63
2017-10-16T11:15:08.093Z,20.61
2017-10-16T11:17:35.589Z,20.77
2017-10-16T11:20:03.207Z,20.90
2017-10-16T11:22:31.074Z,21.06
2017-10-16T11:24:58.548Z,21.11
2017-10-16T11:27:27.031Z,21.04
2017-10-16T11:29:54.534Z,21.05
2017-10-16T11:32:21.988Z,21.17
2017-10-16T11:34:49.449Z,21.28
2017-10-16T11:37:17.290Z,21.44
2017-10-16T11:39:44.823Z,21.54
2017-10-16T11:42:13.314Z,21.55
2017-10-16T11:44:40.967Z,21.55
2017-10-16T11:47:08.583Z,21.67
2017-10-16T11:49:36.111Z,21.90
2017-10-16T11:52:03.712Z,22.24
2017-10-16T11:54:31.273Z,22.43
2017-10-16T11:56:58.919Z,22.42
2017-10-16T11:59:26.495Z,22.35
2017-10-16T12:01:54.048Z,22.52
2017-10-16T12:04:21.611Z,22.71
2017-10-16T12:06:49.260Z,22.69
2017-10-16T12:09:17.605Z,22.57
2017-10-16T12:11:45.110Z,22.73
2017-10-16T12:14:12.831Z,22.71
2017-10-16T12:16:40.345Z,22.73
2017-10-16T12:19:07.868Z,22.71
2017-10-16T12:21:35.842Z,22.65
2017-10-16T12:24:03.346Z,22.80
2017-10-16T12:26:30.855Z,22.82
2017-10-16T12:28:58.900Z,22.80
2017-10-16T12:31:26.412Z,22.91
2017-10-16T12:33:53.950Z,22.87
2017-10-16T12:36:21.555Z,22.93
2017-10-16T12:38:49.084Z,22.94
2017-10-16T12:41:16.632Z,22.90
2017-10-16T12:43:44.245Z,23.01
2017-10-16T12:46:11.738Z,23.06
2017-10-16T12:48:39.189Z,23.17
2017-10-16T12:51:06.764Z,23.05
2017-10-16T12:53:34.271Z,23.02
2017-10-16T12:56:01.758Z,22.96
2017-10-16T12:58:29.289Z,23.07
2017-10-16T13:00:56.862Z,23.27
2017-10-16T13:03:24.459Z,23.19
2017-10-16T13:05:52.474Z,23.22
2017-10-16T13:08:19.946Z,23.25
2017-10-16T13:10:47.517Z,23.23
2017-10-16T13:13:15.174Z,23.25
2017-10-16T13:15:42.702Z,23.25
2017-10-16T13:18:10.265Z,23.19
2017-10-16T13:20:37.846Z,23.30
2017-10-16T13:23:05.428Z,23.34
2017-10-16T13:25:33.039Z,23.36
2017-10-16T13:28:00.591Z,23.44
2017-10-16T13:30:28.116Z,23.46
2017-10-16T13:32:55.943Z,23.23
2017-10-16T13:35:23.420Z,23.20
2017-10-16T13:37:50.948Z,23.31
2017-10-16T13:40:18.546Z,23.30
2017-10-16T13:42:46.963Z,23.25
2017-10-16T13:45:14.540Z,23.25
2017-10-16T13:47:42.277Z,23.32
2017-10-16T13:50:09.884Z,23.38
2017-10-16T13:52:38.054Z,23.40
2017-10-16T13:55:06.568Z,23.38
2017-10-16T13:57:34.350Z,23.29
2017-10-16T14:00:01.969Z,23.38
2017-10-16T14:02:29.550Z,23.35
2017-10-16T14:04:57.228Z,23.36
2017-10-16T14:07:25.496Z,23.45
2017-10-16T14:09:53.456Z,23.43
2017-10-16T14:12:21.315Z,23.43
2017-10-16T14:14:49.044Z,23.42
2017-10-16T14:17:16.631Z,23.42
2017-10-16T14:19:44.508Z,23.33
2017-10-16T14:22:12.267Z,23.21
2017-10-16T14:24:39.858Z,23.18
2017-10-16T14:27:07.911Z,23.17
2017-10-16T14:29:35.539Z,23.19
2017-10-16T14:32:03.023Z,23.09
2017-10-16T14:34:32.399Z,23.06
2017-10-16T14:37:00.878Z,23.00
2017-10-16T14:39:28.452Z,22.94
2017-10-16T14:41:57.740Z,22.98
2017-10-16T14:44:25.199Z,22.96
2017-10-16T14:46:52.744Z,22.89
2017-10-16T14:49:21.026Z,22.86
2017-10-16T14:51:48.641Z,22.74
2017-10-16T14:54:16.633Z,22.69
2017-10-16T14:56:44.341Z,22.57
2017-10-16T14:59:11.847Z,22.51
2017-10-16T15:01:39.566Z,22.44
2017-10-16T15:04:08.627Z,22.37
2017-10-16T15:06:36.220Z,22.30
2017-10-16T15:09:03.817Z,22.25
2017-10-16T15:11:31.525Z,22.19
2017-10-16T15:13:59.125Z,22.10
2017-10-16T15:16:26.749Z,22.07
2017-10-16T15:18:54.376Z,21.95
2017-10-16T15:21:23.574Z,21.85
2017-10-16T15:23:51.103Z,21.75
2017-10-16T15:26:18.832Z,21.66
2017-10-16T15:28:46.633Z,21.50
2017-10-16T15:31:14.057Z,21.34
2017-10-16T15:33:42.532Z,21.20
2017-10-16T15:36:10.198Z,21.02
2017-10-16T15:38:39.459Z,20.82
2017-10-16T15:41:07.141Z,20.58
2017-10-16T15:43:34.703Z,20.33
2017-10-16T15:46:02.314Z,20.12
2017-10-16T15:48:30.173Z,19.87
2017-10-16T15:50:57.726Z,19.65
2017-10-16T15:53:25.349Z,19.41
2017-10-16T15:55:53.165Z,19.18
2017-10-16T15:58:20.852Z,18.96
2017-10-16T16:00:48.538Z,18.76
2017-10-16T16:03:17.436Z,18.53
2017-10-16T16:05:45.478Z,18.35
2017-10-16T16:08:15.267Z,18.17
2017-10-16T16:13:18.167Z,17.84
2017-10-16T16:15:46.125Z,17.71
2017-10-16T16:18:13.896Z,17.55
2017-10-16T16:20:41.628Z,17.37
2017-10-16T16:23:09.657Z,17.21
2017-10-16T16:25:37.318Z,17.06
2017-10-16T16:28:06.139Z,16.92
2017-10-16T16:30:36.627Z,16.82
2017-10-16T16:33:04.139Z,16.71
2017-10-16T16:35:31.610Z,16.55
2017-10-16T16:37:59.789Z,16.43
2017-10-16T16:40:27.294Z,16.32
2017-10-16T16:42:54.800Z,16.22
2017-10-16T16:45:22.856Z,16.13
2017-10-16T16:47:50.358Z,16.03
2017-10-16T16:50:20.869Z,15.92
2017-10-16T16:52:48.857Z,15.82
2017-10-16T16:55:16.334Z,15.72
2017-10-16T16:57:46.123Z,15.62
2017-10-16T17:00:13.741Z,15.50
2017-10-16T17:02:41.199Z,15.41
2017-10-16T17:05:08.758Z,15.32
2017-10-16T17:07:36.391Z,15.23
2017-10-16T17:10:03.990Z,15.14
2017-10-16T17:12:31.548Z,15.12
2017-10-16T17:14:59.440Z,15.04
2017-10-16T17:17:27.044Z,14.96
2017-10-16T17:19:54.597Z,14.88
2017-10-16T17:22:22.647Z,14.83
2017-10-16T17:24:50.272Z,14.77
2017-10-16T17:27:17.788Z,14.73
2017-10-16T17:29:50.407Z,14.71
2017-10-16T17:32:17.942Z,14.65
2017-10-16T17:34:45.573Z,14.61
2017-10-16T17:37:13.438Z,14.53
2017-10-16T17:39:40.977Z,14.47
2017-10-16T17:42:08.464Z,14.35
2017-10-16T17:44:36.589Z,14.26
2017-10-16T17:47:04.419Z,14.19
2017-10-16T17:49:32.011Z,14.12
2017-10-16T17:51:59.952Z,14.07
2017-10-16T17:54:27.418Z,13.98
2017-10-16T17:56:54.917Z,13.88
2017-10-16T17:59:23.274Z,13.76
2017-10-16T18:01:51.761Z,13.68
2017-10-16T18:04:19.289Z,13.60
2017-10-16T18:06:47.156Z,13.56
2017-10-16T18:09:14.719Z,13.58
2017-10-16T18:11:42.311Z,13.60
2017-10-16T18:14:09.877Z,13.63
2017-10-16T18:16:37.534Z,13.64
2017-10-16T18:19:05.129Z,13.60
2017-10-16T18:21:32.745Z,13.57
2017-10-16T18:24:00.361Z,13.60
2017-10-16T18:26:27.935Z,13.56
2017-10-16T18:28:56.188Z,13.52
2017-10-16T18:31:23.769Z,13.46
2017-10-16T18:33:51.385Z,13.40
2017-10-16T18:36:19.025Z,13.31
2017-10-16T18:38:47.282Z,13.23
2017-10-16T18:41:14.835Z,13.19
2017-10-16T18:43:42.429Z,13.16
2017-10-16T18:46:09.938Z,13.08
2017-10-16T18:48:37.401Z,12.99
2017-10-16T18:51:05.064Z,12.93
2017-10-16T18:53:32.612Z,12.86
2017-10-16T18:56:00.163Z,12.78
2017-10-16T18:58:27.687Z,12.74
2017-10-16T19:00:55.273Z,12.71
2017-10-16T19:03:22.731Z,12.69
2017-10-16T19:05:50.271Z,12.65
2017-10-16T19:08:17.743Z,12.60
2017-10-16T19:10:45.281Z,12.54
2017-10-16T19:13:12.941Z,12.51
2017-10-16T19:15:40.580Z,12.42
2017-10-16T19:18:08.243Z,12.34
2017-10-16T19:20:35.886Z,12.28
2017-10-16T19:23:03.428Z,12.27
2017-10-16T19:25:31.010Z,12.16
2017-10-16T19:27:58.626Z,12.20
2017-10-16T19:30:26.272Z,12.26
2017-10-16T19:32:53.825Z,12.16
2017-10-16T19:35:21.788Z,12.03
2017-10-16T19:37:49.461Z,11.93
2017-10-16T19:40:17.106Z,11.81
2017-10-16T19:42:44.724Z,11.74
2017-10-16T19:45:12.272Z,11.64
2017-10-16T19:47:39.892Z,11.55
2017-10-16T19:50:07.568Z,11.47
2017-10-16T19:52:35.291Z,11.43
2017-10-16T19:55:02.869Z,11.40
2017-10-16T19:57:30.423Z,11.40
2017-10-16T19:59:58.093Z,11.39
2017-10-16T20:02:25.656Z,11.39
2017-10-16T20:04:53.318Z,11.40
2017-10-16T20:07:20.926Z,11.41
2017-10-16T20:09:48.537Z,11.39
2017-10-16T20:12:16.206Z,11.37
2017-10-16T20:14:43.854Z,11.34
2017-10-16T20:17:11.472Z,11.24
2017-10-16T20:19:38.990Z,11.15
2017-10-16T20:22:06.476Z,11.05
2017-10-16T20:24:34.099Z,10.95
2017-10-16T20:27:01.917Z,10.90
2017-10-16T20:29:29.475Z,10.81
2017-10-16T20:31:56.986Z,10.75
2017-10-16T20:34:24.602Z,10.67
2017-10-16T20:36:52.245Z,10.64
2017-10-16T20:39:19.886Z,10.64
2017-10-16T20:41:48.202Z,10.58
2017-10-16T20:44:15.785Z,10.50
2017-10-16T20:46:43.794Z,10.51
2017-10-16T20:49:11.796Z,10.53
2017-10-16T20:51:39.352Z,10.52
2017-10-16T20:54:07.005Z,10.49
2017-10-16T20:56:34.681Z,10.46
2017-10-16T20:59:02.316Z,10.43
2017-10-16T21:01:29.814Z,10.49
2017-10-16T21:03:57.459Z,10.49
2017-10-16T21:06:25.023Z,10.49
2017-10-16T21:08:52.513Z,10.48
2017-10-16T21:11:20.530Z,10.46
2017-10-16T21:13:49.765Z,10.40
2017-10-16T21:16:17.294Z,10.34
2017-10-16T21:18:44.870Z,10.28
2017-10-16T21:21:12.527Z,10.22
2017-10-16T21:23:40.232Z,10.17
2017-10-16T21:26:08.428Z,10.15
2017-10-16T21:28:36.138Z,10.12
2017-10-16T21:31:03.699Z,10.11
2017-10-16T21:33:31.310Z,10.10
2017-10-16T21:35:59.036Z,10.12
2017-10-16T21:38:26.505Z,10.10
2017-10-16T21:40:54.421Z,10.04
2017-10-16T21:43:21.894Z,9.99
2017-10-16T21:45:49.444Z,9.92
2017-10-16T21:48:17.430Z,9.85
2017-10-16T21:50:44.943Z,9.80
2017-10-16T21:53:12.375Z,9.79
2017-10-16T21:55:40.807Z,9.77
2017-10-16T21:58:08.291Z,9.69
2017-10-16T22:00:35.890Z,9.66
2017-10-16T22:03:03.412Z,9.62
2017-10-16T22:05:30.869Z,9.64
2017-10-16T22:07:58.324Z,9.64
2017-10-16T22:10:25.779Z,9.62
2017-10-16T22:12:53.233Z,9.57
2017-10-16T22:15:20.839Z,9.65
2017-10-16T22:17:48.638Z,9.57
2017-10-16T22:20:16.107Z,9.58
2017-10-16T22:22:43.720Z,9.58
2017-10-16T22:25:11.648Z,9.51
2017-10-16T22:27:39.183Z,9.46
2017-10-16T22:30:06.698Z,9.41
2017-10-16T22:32:34.831Z,9.35
2017-10-16T22:35:02.279Z,9.35
2017-10-16T22:37:29.811Z,9.28
2017-10-16T22:39:57.330Z,9.21
2017-10-16T22:42:24.801Z,9.16
2017-10-16T22:44:52.362Z,9.12
2017-10-16T22:47:34.800Z,9.05
2017-10-16T22:50:02.262Z,8.98
2017-10-16T22:52:29.751Z,8.95
2017-10-16T22:54:57.317Z,8.92
2017-10-16T22:57:24.827Z,8.88
2017-10-16T22:59:52.360Z,8.87
2017-10-16T23:02:19.892Z,8.96
2017-10-16T23:04:47.552Z,8.94
2017-10-16T23:07:15.021Z,8.92
2017-10-16T23:09:42.637Z,8.91
2017-10-16T23:12:10.111Z,8.86
2017-10-16T23:14:37.540Z,8.77
2017-10-16T23:17:05.134Z,8.69
2017-10-16T23:19:32.607Z,8.67
2017-10-16T23:22:00.189Z,8.65
2017-10-16T23:24:27.814Z,8.64
2017-10-16T23:26:55.379Z,8.67
2017-10-16T23:29:22.807Z,8.69
2017-10-16T23:31:50.706Z,8.72
2017-10-16T23:34:18.194Z,8.69
2017-10-16T23:36:45.677Z,8.64
2017-10-16T23:39:13.228Z,8.59
2017-10-16T23:41:40.800Z,8.54
2017-10-16T23:44:08.244Z,8.48
2017-10-16T23:46:35.846Z,8.43
2017-10-16T23:49:03.440Z,8.42
2017-10-16T23:51:31.025Z,8.45
2017-10-16T23:53:58.489Z,8.48
2017-10-16T23:56:25.943Z,8.41
2017-10-16T23:58:53.380Z,8.39
